Time;durP1;ratioP1;P1;durP2;ratioP2;P2;SDS_P1;SDS_P2;PMS_P1;PMS_P2;Temp;Humidity;BMP_temperature;BMP_pressure;BME280_temperature;BME280_humidity;BME280_pressure;Samples;Min_cycle;Max_cycle;Signal;HPM_P1;HPM_P2
2022/10/14 00:01:21;;;;;;;1.27;0.57;;;;;;;;;;5111575;28;20047;-86
2022/10/14 00:03:48;;;;;;;0.30;0.30;;;;;;;;;;5093434;28;20428;-85
2022/10/14 00:06:16;;;;;;;0.70;0.57;;;;;;;;;;5109947;28;20051;-83
2022/10/14 00:08:43;;;;;;;0.57;0.57;;;;;;;;;;5110639;28;20043;-86
2022/10/14 00:11:11;;;;;;;0.63;0.60;;;;;;;;;;5090969;28;20021;-85
2022/10/14 00:13:37;;;;;;;1.65;0.80;;;;;;;;;;5111681;28;20037;-88
2022/10/14 00:16:03;;;;;;;0.60;0.60;;;;;;;;;;5089942;28;20023;-83
2022/10/14 00:18:30;;;;;;;2.03;0.80;;;;;;;;;;5111283;28;20085;-83
2022/10/14 00:21:00;;;;;;;0.70;0.70;;;;;;;;;;5108749;28;20024;-84
2022/10/14 00:23:26;;;;;;;0.57;0.52;;;;;;;;;;5091758;28;20475;-82
2022/10/14 00:25:52;;;;;;;1.38;0.93;;;;;;;;;;5110785;28;20360;-86
2022/10/14 00:28:18;;;;;;;1.13;0.57;;;;;;;;;;5092747;28;20046;-84
2022/10/14 00:30:58;;;;;;;1.42;1.30;;;;;;;;;;5110303;28;20034;-82
2022/10/14 00:33:25;;;;;;;0.75;0.75;;;;;;;;;;5107768;28;20403;-84
2022/10/14 00:36:01;;;;;;;0.93;0.63;;;;;;;;;;5113511;28;20103;-85
2022/10/14 00:38:27;;;;;;;0.60;0.60;;;;;;;;;;5113402;28;20167;-86
2022/10/14 00:40:53;;;;;;;0.40;0.40;;;;;;;;;;5115232;28;20035;-86
2022/10/14 00:43:20;;;;;;;0.70;0.45;;;;;;;;;;5114469;28;20404;-89
2022/10/14 00:45:46;;;;;;;0.88;0.75;;;;;;;;;;5115640;28;20482;-87
2022/10/14 00:48:12;;;;;;;1.45;0.70;;;;;;;;;;5112423;28;20020;-87
2022/10/14 00:50:42;;;;;;;1.42;0.80;;;;;;;;;;5108485;28;20055;-89
2022/10/14 00:53:07;;;;;;;;;;;;;;;;;;5115662;28;20030;-87
2022/10/14 00:55:33;;;;;;;0.35;0.30;;;;;;;;;;5115183;28;19912;-84
2022/10/14 00:57:59;;;;;;;0.35;0.30;;;;;;;;;;5115439;28;20016;-86
2022/10/14 01:00:24;;;;;;;1.27;1.05;;;;;;;;;;5097070;28;20105;-86
2022/10/14 01:02:50;;;;;;;0.50;0.50;;;;;;;;;;5113245;28;20027;-86
2022/10/14 01:05:18;;;;;;;0.38;0.38;;;;;;;;;;5097017;28;20026;-87
2022/10/14 01:07:57;;;;;;;0.15;0.15;;;;;;;;;;5096534;28;20442;-85
2022/10/14 01:10:42;;;;;;;0.45;0.35;;;;;;;;;;5091973;28;20524;-84
2022/10/14 01:13:21;;;;;;;0.22;0.22;;;;;;;;;;5111871;28;20498;-87
2022/10/14 01:16:06;;;;;;;0.88;0.70;;;;;;;;;;5096634;28;20040;-88
2022/10/14 01:18:59;;;;;;;0.45;0.45;;;;;;;;;;5093248;28;20037;-87
2022/10/14 01:21:52;;;;;;;0.85;0.30;;;;;;;;;;5095367;28;20356;-87
2022/10/14 01:24:33;;;;;;;2.22;0.75;;;;;;;;;;5104795;28;20035;-84
2022/10/14 01:27:37;;;;;;;1.33;0.85;;;;;;;;;;5110566;28;20020;-84
2022/10/14 01:30:08;;;;;;;0.75;0.47;;;;;;;;;;5095296;28;20059;-82
2022/10/14 01:32:45;;;;;;;0.28;0.28;;;;;;;;;;5114177;28;20020;-84
2022/10/14 01:35:48;;;;;;;0.38;0.38;;;;;;;;;;5094274;28;20365;-83
2022/10/14 01:38:21;;;;;;;0.20;0.20;;;;;;;;;;5093429;28;20028;-87
2022/10/14 01:40:57;;;;;;;0.63;0.63;;;;;;;;;;5112257;28;20494;-87
2022/10/14 01:43:26;;;;;;;0.20;0.20;;;;;;;;;;5112298;28;20027;-84
2022/10/14 01:45:54;;;;;;;1.88;0.50;;;;;;;;;;5113359;28;20094;-83
2022/10/14 01:48:24;;;;;;;1.08;0.38;;;;;;;;;;5114044;28;20024;-84
2022/10/14 01:50:52;;;;;;;0.30;0.30;;;;;;;;;;5095328;28;20028;-88
2022/10/14 01:53:23;;;;;;;0.45;0.30;;;;;;;;;;5092086;28;20505;-85
2022/10/14 01:55:52;;;;;;;3.53;0.32;;;;;;;;;;5112934;28;20425;-86
2022/10/14 01:58:21;;;;;;;0.30;0.30;;;;;;;;;;5096583;28;20158;-87
2022/10/14 02:00:47;;;;;;;0.30;0.30;;;;;;;;;;5096064;28;20332;-85
2022/10/14 02:03:13;;;;;;;0.10;0.10;;;;;;;;;;5113758;28;20106;-82
2022/10/14 02:06:00;;;;;;;0.43;0.30;;;;;;;;;;5113639;28;20041;-86
2022/10/14 02:08:53;;;;;;;0.60;0.52;;;;;;;;;;5095051;28;20020;-84
2022/10/14 02:11:20;;;;;;;0.22;0.22;;;;;;;;;;5090669;28;20387;-86
2022/10/14 02:14:10;;;;;;;0.32;0.30;;;;;;;;;;5113206;28;20027;-85
2022/10/14 02:16:50;;;;;;;0.35;0.35;;;;;;;;;;5111240;28;20020;-86
2022/10/14 02:19:45;;;;;;;0.13;0.13;;;;;;;;;;5091695;28;20023;-85
2022/10/14 02:22:31;;;;;;;0.20;0.20;;;;;;;;;;5114045;28;20028;-86
2022/10/14 02:25:05;;;;;;;0.30;0.30;;;;;;;;;;5112527;28;20041;-86
2022/10/14 02:27:33;;;;;;;0.22;0.22;;;;;;;;;;5113382;28;20036;-87
2022/10/14 02:29:59;;;;;;;0.30;0.30;;;;;;;;;;5095807;28;20028;-87
2022/10/14 02:32:27;;;;;;;0.50;0.43;;;;;;;;;;5094706;28;20028;-89
2022/10/14 02:34:55;;;;;;;0.47;0.40;;;;;;;;;;5095251;28;20042;-86
2022/10/14 02:37:21;;;;;;;0.35;0.30;;;;;;;;;;5095722;28;20027;-88
2022/10/14 02:39:54;;;;;;;0.35;0.32;;;;;;;;;;5111157;28;20027;-88
2022/10/14 02:42:20;;;;;;;0.35;0.32;;;;;;;;;;5092166;28;20166;-90
2022/10/14 02:44:57;;;;;;;0.55;0.55;;;;;;;;;;5113828;28;20051;-87
2022/10/14 02:47:23;;;;;;;0.55;0.43;;;;;;;;;;5113450;28;20033;-88
2022/10/14 02:49:49;;;;;;;0.70;0.52;;;;;;;;;;5095227;28;20032;-88
2022/10/14 02:52:14;;;;;;;0.32;0.32;;;;;;;;;;5112831;28;20527;-83
2022/10/14 02:54:39;;;;;;;1.90;0.85;;;;;;;;;;5111859;28;20046;-87
2022/10/14 02:57:05;;;;;;;1.08;1.02;;;;;;;;;;5093847;28;20027;-87
2022/10/14 02:59:30;;;;;;;1.17;0.85;;;;;;;;;;5110820;28;20027;-89
2022/10/14 03:01:56;;;;;;;1.05;0.85;;;;;;;;;;5113358;28;20065;-90
2022/10/14 03:04:21;;;;;;;0.98;0.70;;;;;;;;;;5113079;28;20051;-87
2022/10/14 03:06:46;;;;;;;0.60;0.60;;;;;;;;;;5094493;28;20034;-87
2022/10/14 03:09:12;;;;;;;0.55;0.50;;;;;;;;;;5094333;28;20032;-88
2022/10/14 03:11:37;;;;;;;1.13;0.85;;;;;;;;;;5111766;28;20521;-90
2022/10/14 03:14:03;;;;;;;0.68;0.50;;;;;;;;;;5092217;28;20023;-86
2022/10/14 03:16:28;;;;;;;1.10;0.85;;;;;;;;;;5094780;28;20062;-88
2022/10/14 03:18:53;;;;;;;1.27;1.17;;;;;;;;;;5111305;28;20020;-86
2022/10/14 03:21:19;;;;;;;1.02;0.80;;;;;;;;;;5112223;28;20027;-87
2022/10/14 03:23:44;;;;;;;1.55;1.00;;;;;;;;;;5093692;28;20040;-88
2022/10/14 03:26:10;;;;;;;0.77;0.70;;;;;;;;;;5112108;28;20035;-90
2022/10/14 03:28:35;;;;;;;1.08;0.80;;;;;;;;;;5093806;28;20051;-89
2022/10/14 03:31:01;;;;;;;1.13;0.95;;;;;;;;;;5111602;28;20478;-86
2022/10/14 03:33:26;;;;;;;0.73;0.60;;;;;;;;;;5092128;28;20030;-88
2022/10/14 03:35:51;;;;;;;0.63;0.50;;;;;;;;;;5092636;28;20407;-86
2022/10/14 03:38:17;;;;;;;1.27;0.63;;;;;;;;;;5092394;28;20053;-88
2022/10/14 03:40:43;;;;;;;1.05;0.80;;;;;;;;;;5110890;28;20108;-85
2022/10/14 03:43:08;;;;;;;0.50;0.38;;;;;;;;;;5094433;28;20085;-85
2022/10/14 03:45:34;;;;;;;0.30;0.30;;;;;;;;;;5112100;28;20027;-86
2022/10/14 03:47:59;;;;;;;0.75;0.65;;;;;;;;;;5110334;28;20023;-85
2022/10/14 03:50:25;;;;;;;0.63;0.45;;;;;;;;;;5094297;28;20395;-86
2022/10/14 03:52:50;;;;;;;0.60;0.60;;;;;;;;;;5092836;28;20035;-86
2022/10/14 03:55:16;;;;;;;0.70;0.50;;;;;;;;;;5094271;28;20123;-87
2022/10/14 03:57:41;;;;;;;0.60;0.50;;;;;;;;;;5093868;28;20360;-85
2022/10/14 04:00:08;;;;;;;0.98;0.80;;;;;;;;;;5092293;28;20394;-88
2022/10/14 04:02:33;;;;;;;0.80;0.77;;;;;;;;;;5112047;28;20047;-86
2022/10/14 04:04:59;;;;;;;1.00;0.80;;;;;;;;;;5088434;28;20093;-87
2022/10/14 04:07:24;;;;;;;0.80;0.73;;;;;;;;;;5093536;28;20478;-88
2022/10/14 04:09:49;;;;;;;1.20;1.10;;;;;;;;;;5111275;28;20036;-88
2022/10/14 04:12:15;;;;;;;0.75;0.70;;;;;;;;;;5096890;28;20147;-87
2022/10/14 04:14:40;;;;;;;1.30;0.85;;;;;;;;;;5095898;28;20137;-88
2022/10/14 04:17:06;;;;;;;0.82;0.82;;;;;;;;;;5111996;28;20028;-90
2022/10/14 04:19:31;;;;;;;1.40;1.00;;;;;;;;;;5114704;28;20023;-83
2022/10/14 04:21:56;;;;;;;1.02;0.93;;;;;;;;;;5112634;28;20034;-83
2022/10/14 04:24:22;;;;;;;1.17;1.08;;;;;;;;;;5094298;28;20027;-83
2022/10/14 04:26:51;;;;;;;4.78;0.90;;;;;;;;;;5111575;28;20053;-83
2022/10/14 04:29:17;;;;;;;1.00;0.90;;;;;;;;;;5112385;28;20039;-84
2022/10/14 04:31:43;;;;;;;0.65;0.63;;;;;;;;;;5091159;28;20130;-83
2022/10/14 04:34:09;;;;;;;1.00;0.95;;;;;;;;;;5114105;28;21015;-83
2022/10/14 04:36:35;;;;;;;2.90;1.35;;;;;;;;;;5091575;28;20057;-83
2022/10/14 04:39:00;;;;;;;2.70;1.73;;;;;;;;;;5111110;28;20023;-84
2022/10/14 04:41:26;;;;;;;2.00;1.27;;;;;;;;;;5113649;28;20023;-86
2022/10/14 04:43:52;;;;;;;1.40;1.10;;;;;;;;;;5096986;28;20024;-88
2022/10/14 04:46:17;;;;;;;1.13;0.77;;;;;;;;;;5097040;28;20059;-86
2022/10/14 04:48:43;;;;;;;0.82;0.82;;;;;;;;;;5096691;28;20028;-86
2022/10/14 04:51:08;;;;;;;3.17;1.70;;;;;;;;;;5115135;28;20364;-86
2022/10/14 04:53:34;;;;;;;0.85;0.85;;;;;;;;;;5096965;28;20019;-88
2022/10/14 04:55:59;;;;;;;1.85;1.20;;;;;;;;;;5112372;28;20034;-86
2022/10/14 04:58:24;;;;;;;0.63;0.55;;;;;;;;;;5114759;28;20467;-86
2022/10/14 05:00:53;;;;;;;1.02;0.73;;;;;;;;;;5094222;28;20470;-83
2022/10/14 05:03:18;;;;;;;0.77;0.77;;;;;;;;;;5095335;28;20016;-85
2022/10/14 05:05:44;;;;;;;0.45;0.45;;;;;;;;;;5114715;28;20072;-84
2022/10/14 05:08:09;;;;;;;0.63;0.63;;;;;;;;;;5114661;28;20020;-85
2022/10/14 05:10:35;;;;;;;1.52;1.27;;;;;;;;;;5095045;28;20047;-85
2022/10/14 05:13:00;;;;;;;1.60;0.80;;;;;;;;;;5094681;28;20020;-87
2022/10/14 05:15:26;;;;;;;1.27;1.17;;;;;;;;;;5091803;28;20034;-86
2022/10/14 05:17:51;;;;;;;0.65;0.55;;;;;;;;;;5110442;28;20024;-86
2022/10/14 05:20:17;;;;;;;1.17;0.80;;;;;;;;;;5094353;28;20030;-85
2022/10/14 05:22:45;;;;;;;0.40;0.40;;;;;;;;;;5091375;28;20038;-84
2022/10/14 05:25:10;;;;;;;0.20;0.20;;;;;;;;;;5112037;28;20054;-86
2022/10/14 05:27:36;;;;;;;0.52;0.50;;;;;;;;;;5112279;28;20514;-87
2022/10/14 05:30:01;;;;;;;0.75;0.40;;;;;;;;;;5111891;28;20486;-86
2022/10/14 05:32:27;;;;;;;0.80;0.77;;;;;;;;;;5095667;28;20023;-84
2022/10/14 05:34:53;;;;;;;0.70;0.50;;;;;;;;;;5094514;28;20073;-84
2022/10/14 05:37:18;;;;;;;0.40;0.35;;;;;;;;;;5113801;28;20032;-87
2022/10/14 05:39:44;;;;;;;0.30;0.30;;;;;;;;;;5094526;28;20024;-85
2022/10/14 05:42:09;;;;;;;0.32;0.32;;;;;;;;;;5095124;28;20020;-86
2022/10/14 05:44:34;;;;;;;0.52;0.30;;;;;;;;;;5110942;28;20019;-86
2022/10/14 05:47:00;;;;;;;0.47;0.40;;;;;;;;;;5094744;28;20020;-87
2022/10/14 05:49:26;;;;;;;0.15;0.15;;;;;;;;;;5093727;28;20046;-84
2022/10/14 05:51:51;;;;;;;0.55;0.32;;;;;;;;;;5113115;28;20102;-86
2022/10/14 05:54:17;;;;;;;0.75;0.38;;;;;;;;;;5110302;28;20032;-87
2022/10/14 05:56:42;;;;;;;2.95;0.55;;;;;;;;;;5095582;28;20475;-86
2022/10/14 05:59:09;;;;;;;1.10;0.80;;;;;;;;;;5113134;28;20019;-85
2022/10/14 06:01:37;;;;;;;0.82;0.45;;;;;;;;;;5094471;28;20053;-84
2022/10/14 06:04:03;;;;;;;0.40;0.30;;;;;;;;;;5092460;28;20063;-85
2022/10/14 06:06:28;;;;;;;0.45;0.45;;;;;;;;;;5112755;27;20055;-85
2022/10/14 06:08:55;;;;;;;0.75;0.73;;;;;;;;;;5110221;27;20114;-84
2022/10/14 06:11:21;;;;;;;0.32;0.32;;;;;;;;;;5094621;28;20111;-86
2022/10/14 06:13:46;;;;;;;0.60;0.60;;;;;;;;;;5112834;28;20106;-85
2022/10/14 06:16:12;;;;;;;1.30;1.17;;;;;;;;;;5094441;28;20023;-84
2022/10/14 06:18:39;;;;;;;1.05;0.75;;;;;;;;;;5091731;28;20027;-85
2022/10/14 06:21:06;;;;;;;1.92;0.88;;;;;;;;;;5109066;28;20027;-85
2022/10/14 06:23:32;;;;;;;0.80;0.75;;;;;;;;;;5090542;28;20492;-84
2022/10/14 06:26:02;;;;;;;1.38;0.77;;;;;;;;;;5093689;28;20034;-84
2022/10/14 06:28:28;;;;;;;1.23;0.73;;;;;;;;;;5113268;28;20495;-84
2022/10/14 06:30:54;;;;;;;7.13;1.63;;;;;;;;;;5111825;28;20032;-86
2022/10/14 06:33:21;;;;;;;2.95;1.10;;;;;;;;;;5112267;28;20367;-85
2022/10/14 06:35:48;;;;;;;3.60;1.27;;;;;;;;;;5108813;28;20031;-83
2022/10/14 06:38:16;;;;;;;2.53;1.35;;;;;;;;;;5111295;28;20453;-87
2022/10/14 06:40:42;;;;;;;1.75;1.38;;;;;;;;;;5094287;28;20530;-87
2022/10/14 06:43:08;;;;;;;6.07;1.63;;;;;;;;;;5107506;28;20083;-85
2022/10/14 06:45:34;;;;;;;9.02;5.55;;;;;;;;;;5091585;28;20027;-85
2022/10/14 06:47:59;;;;;;;4.72;3.40;;;;;;;;;;5093068;28;20034;-85
2022/10/14 06:50:25;;;;;;;8.77;5.22;;;;;;;;;;5092306;28;20028;-85
2022/10/14 06:52:51;;;;;;;3.83;1.60;;;;;;;;;;5090300;28;20047;-85
2022/10/14 06:55:17;;;;;;;1.80;1.35;;;;;;;;;;5089594;28;20033;-84
2022/10/14 06:57:43;;;;;;;2.28;1.15;;;;;;;;;;5109607;28;20023;-84
2022/10/14 07:00:09;;;;;;;1.95;1.70;;;;;;;;;;5091909;28;20031;-85
2022/10/14 07:02:39;;;;;;;1.80;1.20;;;;;;;;;;5088538;28;20033;-85
2022/10/14 07:05:05;;;;;;;2.17;1.35;;;;;;;;;;5110531;28;20054;-82
2022/10/14 07:07:31;;;;;;;2.22;1.45;;;;;;;;;;5092161;28;20027;-87
2022/10/14 07:09:58;;;;;;;1.60;1.33;;;;;;;;;;5091889;28;20033;-85
2022/10/14 07:12:24;;;;;;;1.45;1.33;;;;;;;;;;5109471;28;20046;-87
2022/10/14 07:14:51;;;;;;;2.17;1.40;;;;;;;;;;5113234;28;20034;-85
2022/10/14 07:17:17;;;;;;;1.02;0.82;;;;;;;;;;5109518;28;20104;-86
2022/10/14 07:19:43;;;;;;;2.35;1.55;;;;;;;;;;5111144;28;20098;-86
2022/10/14 07:22:09;;;;;;;4.22;1.45;;;;;;;;;;5092979;28;20122;-86
2022/10/14 07:24:35;;;;;;;1.45;1.00;;;;;;;;;;5091345;28;20380;-85
2022/10/14 07:27:02;;;;;;;2.03;1.17;;;;;;;;;;5112563;28;20030;-84
2022/10/14 07:29:28;;;;;;;2.97;1.38;;;;;;;;;;5093831;28;20528;-86
2022/10/14 07:31:54;;;;;;;2.28;1.20;;;;;;;;;;5092074;28;20039;-85
2022/10/14 07:34:20;;;;;;;1.35;1.00;;;;;;;;;;5110361;28;20045;-84
2022/10/14 07:36:46;;;;;;;1.80;1.05;;;;;;;;;;5093413;28;20031;-88
2022/10/14 07:39:13;;;;;;;3.15;2.00;;;;;;;;;;5091834;28;20042;-84
2022/10/14 07:41:39;;;;;;;5.43;1.98;;;;;;;;;;5092436;28;20062;-84
2022/10/14 07:44:08;;;;;;;2.08;1.58;;;;;;;;;;5107803;28;20019;-87
2022/10/14 07:46:37;;;;;;;2.00;1.48;;;;;;;;;;5091629;28;20028;-86
2022/10/14 07:49:18;;;;;;;1.52;1.00;;;;;;;;;;5089210;28;20047;-85
2022/10/14 07:51:48;;;;;;;1.35;0.82;;;;;;;;;;5092340;28;20123;-85
2022/10/14 07:54:20;;;;;;;0.57;0.55;;;;;;;;;;5111650;28;20062;-84
2022/10/14 07:56:50;;;;;;;1.80;1.33;;;;;;;;;;5111867;28;20024;-86
2022/10/14 07:59:18;;;;;;;1.20;0.77;;;;;;;;;;5107919;28;20051;-82
2022/10/14 08:01:49;;;;;;;2.40;1.40;;;;;;;;;;5108195;28;20055;-84
2022/10/14 08:04:15;;;;;;;2.22;1.02;;;;;;;;;;5091249;28;20397;-85
2022/10/14 08:06:42;;;;;;;1.42;0.80;;;;;;;;;;5092944;28;20111;-85
2022/10/14 08:09:10;;;;;;;3.97;2.03;;;;;;;;;;5091845;28;20034;-85
2022/10/14 08:11:36;;;;;;;1.60;1.08;;;;;;;;;;5109958;28;20070;-84
2022/10/14 08:14:03;;;;;;;1.42;1.10;;;;;;;;;;5091832;28;20020;-83
2022/10/14 08:16:32;;;;;;;1.40;1.15;;;;;;;;;;5108684;28;20038;-83
2022/10/14 08:19:00;;;;;;;1.43;0.97;;;;;;;;;;5111744;28;20024;-85
2022/10/14 08:21:27;;;;;;;2.17;1.20;;;;;;;;;;5108704;28;20023;-84
2022/10/14 08:23:53;;;;;;;1.52;1.15;;;;;;;;;;5110851;28;20095;-86
2022/10/14 08:26:35;;;;;;;1.33;0.95;;;;;;;;;;5089436;28;20039;-84
2022/10/14 08:29:07;;;;;;;1.20;0.80;;;;;;;;;;5108341;28;20040;-87
2022/10/14 08:31:39;;;;;;;1.75;0.77;;;;;;;;;;5090655;28;20051;-86
2022/10/14 08:34:05;;;;;;;0.80;0.70;;;;;;;;;;5088953;28;20047;-86
2022/10/14 08:36:32;;;;;;;1.00;0.88;;;;;;;;;;5109945;28;20020;-87
2022/10/14 08:38:58;;;;;;;1.48;0.73;;;;;;;;;;5110290;28;20016;-86
2022/10/14 08:41:43;;;;;;;0.80;0.70;;;;;;;;;;5110082;28;20100;-85
2022/10/14 08:44:22;;;;;;;1.05;0.95;;;;;;;;;;5107735;28;20413;-86
2022/10/14 08:47:03;;;;;;;0.55;0.50;;;;;;;;;;5089488;28;20486;-86
2022/10/14 08:50:02;;;;;;;0.82;0.80;;;;;;;;;;5089353;28;20532;-86
2022/10/14 08:52:39;;;;;;;0.47;0.47;;;;;;;;;;5091505;28;20368;-85
2022/10/14 08:55:36;;;;;;;1.35;1.08;;;;;;;;;;5107644;28;20084;-86
2022/10/14 08:58:27;;;;;;;1.23;1.00;;;;;;;;;;5111699;28;20092;-87
2022/10/14 09:00:57;;;;;;;0.82;0.63;;;;;;;;;;5092251;28;20024;-85
2022/10/14 09:03:32;;;;;;;1.65;1.10;;;;;;;;;;5094863;28;20035;-85
2022/10/14 09:06:21;;;;;;;1.30;1.17;;;;;;;;;;5114197;28;20528;-85
2022/10/14 09:08:49;;;;;;;0.90;0.70;;;;;;;;;;5093526;28;20024;-85
2022/10/14 09:11:21;;;;;;;0.90;0.75;;;;;;;;;;5093644;28;20065;-85
2022/10/14 09:14:00;;;;;;;2.50;1.00;;;;;;;;;;5114274;28;20035;-86
2022/10/14 09:16:35;;;;;;;0.70;0.70;;;;;;;;;;5114713;28;20090;-86
2022/10/14 09:19:25;;;;;;;0.47;0.47;;;;;;;;;;5095894;28;20374;-87
2022/10/14 09:21:54;;;;;;;;;;;;;;;;;;5106804;28;20039;-88
2022/10/14 09:24:24;;;;;;;0.35;0.30;;;;;;;;;;5093937;28;19962;-84
2022/10/14 09:27:05;;;;;;;1.52;0.80;;;;;;;;;;5114685;28;20503;-87
2022/10/14 09:29:35;;;;;;;0.73;0.55;;;;;;;;;;5112273;28;20039;-88
2022/10/14 09:32:06;;;;;;;1.08;0.65;;;;;;;;;;5110947;28;20470;-85
2022/10/14 09:34:33;;;;;;;0.45;0.45;;;;;;;;;;5113931;28;20076;-88
2022/10/14 09:37:24;;;;;;;0.35;0.30;;;;;;;;;;5097689;28;20055;-87
2022/10/14 09:39:52;;;;;;;1.08;0.70;;;;;;;;;;5112015;28;20029;-86
2022/10/14 09:42:26;;;;;;;0.73;0.50;;;;;;;;;;5112918;28;20073;-84
2022/10/14 09:45:21;;;;;;;1.85;0.90;;;;;;;;;;5112490;28;20027;-86
2022/10/14 09:47:56;;;;;;;1.55;0.57;;;;;;;;;;5113814;28;20023;-84
2022/10/14 09:50:28;;;;;;;1.42;1.00;;;;;;;;;;5113154;28;20023;-87
2022/10/14 09:53:09;;;;;;;1.80;0.90;;;;;;;;;;5114451;28;20383;-89
2022/10/14 09:55:46;;;;;;;2.28;1.27;;;;;;;;;;5092213;28;20385;-84
2022/10/14 09:58:16;;;;;;;1.30;0.65;;;;;;;;;;5091263;28;20402;-85
2022/10/14 10:00:44;;;;;;;1.17;0.85;;;;;;;;;;5094740;28;20065;-87
2022/10/14 10:03:25;;;;;;;4.38;0.68;;;;;;;;;;5113401;28;20413;-83
2022/10/14 10:06:07;;;;;;;0.40;0.40;;;;;;;;;;5113187;28;20042;-88
2022/10/14 10:08:40;;;;;;;0.70;0.55;;;;;;;;;;5112337;28;20388;-86
2022/10/14 10:11:12;;;;;;;1.00;0.80;;;;;;;;;;5093629;28;20024;-86
2022/10/14 10:13:47;;;;;;;0.95;0.63;;;;;;;;;;5096142;28;20027;-85
2022/10/14 10:16:42;;;;;;;0.95;0.77;;;;;;;;;;5109581;28;20027;-88
2022/10/14 10:19:31;;;;;;;0.98;0.90;;;;;;;;;;5078780;28;20543;-86
2022/10/14 10:22:20;;;;;;;2.58;0.75;;;;;;;;;;5092518;28;20031;-86
2022/10/14 10:24:47;;;;;;;0.73;0.50;;;;;;;;;;5092447;28;20467;-87
2022/10/14 10:27:44;;;;;;;0.40;0.35;;;;;;;;;;5109967;28;20083;-87
2022/10/14 10:30:16;;;;;;;0.70;0.60;;;;;;;;;;5112487;28;20027;-86
2022/10/14 10:33:12;;;;;;;0.80;0.77;;;;;;;;;;5095312;28;20054;-83
2022/10/14 10:35:56;;;;;;;0.70;0.50;;;;;;;;;;5095014;28;20030;-85
2022/10/14 10:38:30;;;;;;;1.08;0.60;;;;;;;;;;5096713;28;20024;-86
2022/10/14 10:41:04;;;;;;;0.50;0.50;;;;;;;;;;5113818;28;20038;-85
2022/10/14 10:43:36;;;;;;;0.93;0.70;;;;;;;;;;5094234;28;20476;-85
2022/10/14 10:46:27;;;;;;;0.90;0.55;;;;;;;;;;5096306;28;20023;-83
2022/10/14 10:49:18;;;;;;;0.30;0.30;;;;;;;;;;5091401;28;20475;-87
2022/10/14 10:51:44;;;;;;;1.85;0.65;;;;;;;;;;5076359;28;20040;-86
2022/10/14 10:54:34;;;;;;;1.77;1.00;;;;;;;;;;5113270;28;20070;-85
2022/10/14 10:57:11;;;;;;;1.08;0.70;;;;;;;;;;5111022;28;20029;-86
2022/10/14 10:59:57;;;;;;;0.95;0.70;;;;;;;;;;5095743;27;20019;-84
2022/10/14 11:02:49;;;;;;;0.70;0.60;;;;;;;;;;5113518;28;20027;-88
2022/10/14 11:05:41;;;;;;;1.02;0.75;;;;;;;;;;5110131;28;20479;-87
2022/10/14 11:14:16;;;;;;;0.60;0.57;;;;;;;;;;5109913;28;20066;-85
2022/10/14 11:16:48;;;;;;;0.20;0.20;;;;;;;;;;5094904;28;20041;-87
2022/10/14 11:19:19;;;;;;;0.95;0.63;;;;;;;;;;5091824;28;20027;-86
2022/10/14 11:22:04;;;;;;;1.15;0.43;;;;;;;;;;5090984;28;20039;-89
2022/10/14 11:24:41;;;;;;;1.15;0.55;;;;;;;;;;5110114;28;20475;-86
2022/10/14 11:27:36;;;;;;;1.85;0.40;;;;;;;;;;5093931;28;20023;-88
2022/10/14 11:30:19;;;;;;;0.50;0.47;;;;;;;;;;5094011;28;20563;-84
2022/10/14 11:33:05;;;;;;;1.25;0.52;;;;;;;;;;5110943;28;20391;-86
2022/10/14 11:35:43;;;;;;;0.55;0.43;;;;;;;;;;5093115;28;20115;-86
2022/10/14 11:38:11;;;;;;;0.40;0.40;;;;;;;;;;5108616;28;20031;-86
2022/10/14 11:40:54;;;;;;;0.85;0.50;;;;;;;;;;5110909;28;20016;-88
2022/10/14 11:43:33;;;;;;;1.08;0.30;;;;;;;;;;5092158;28;20463;-88
2022/10/14 11:46:04;;;;;;;0.10;0.10;;;;;;;;;;5094507;28;20027;-88
2022/10/14 11:48:47;;;;;;;0.20;0.20;;;;;;;;;;5112208;28;20478;-87
2022/10/14 11:51:39;;;;;;;0.80;0.52;;;;;;;;;;5110798;28;20114;-87
2022/10/14 11:54:11;;;;;;;1.80;0.68;;;;;;;;;;5110136;28;20035;-86
2022/10/14 11:56:51;;;;;;;0.40;0.30;;;;;;;;;;5089787;28;20375;-86
2022/10/14 11:59:30;;;;;;;0.20;0.20;;;;;;;;;;5093929;28;20023;-84
2022/10/14 12:02:16;;;;;;;0.65;0.32;;;;;;;;;;5093001;28;20365;-84
2022/10/14 12:04:45;;;;;;;0.20;0.20;;;;;;;;;;5108918;28;20057;-86
2022/10/14 12:07:17;;;;;;;0.25;0.25;;;;;;;;;;5110222;28;20110;-87
2022/10/14 12:10:12;;;;;;;0.52;0.15;;;;;;;;;;5109217;28;20024;-87
2022/10/14 12:12:40;;;;;;;0.55;0.28;;;;;;;;;;5089294;28;20028;-84
2022/10/14 12:15:15;;;;;;;0.25;0.25;;;;;;;;;;5091104;28;20023;-88
2022/10/14 12:18:03;;;;;;;0.20;0.20;;;;;;;;;;5108827;28;20031;-87
2022/10/14 12:20:43;;;;;;;0.22;0.20;;;;;;;;;;5111303;28;20029;-85
2022/10/14 12:23:16;;;;;;;0.60;0.32;;;;;;;;;;5108584;28;20028;-86
2022/10/14 12:25:57;;;;;;;0.20;0.20;;;;;;;;;;5106583;28;20040;-86
2022/10/14 12:28:23;;;;;;;0.25;0.25;;;;;;;;;;5108193;28;20040;-87
2022/10/14 12:30:50;;;;;;;0.15;0.13;;;;;;;;;;5114509;28;20452;-86
2022/10/14 12:33:16;;;;;;;0.20;0.20;;;;;;;;;;5094513;28;20098;-87
2022/10/14 12:35:52;;;;;;;0.20;0.20;;;;;;;;;;5115406;28;20523;-86
2022/10/14 12:38:19;;;;;;;5.75;0.30;;;;;;;;;;5095176;28;20023;-85
2022/10/14 12:40:48;;;;;;;0.10;0.10;;;;;;;;;;5109800;28;20026;-88
2022/10/14 12:43:25;;;;;;;0.38;0.38;;;;;;;;;;5097701;28;20085;-84
2022/10/14 12:46:02;;;;;;;0.10;0.10;;;;;;;;;;5093001;28;20035;-87
2022/10/14 12:48:34;;;;;;;0.60;0.32;;;;;;;;;;5095693;28;20097;-87
2022/10/14 12:51:15;;;;;;;0.30;0.20;;;;;;;;;;5113876;28;20027;-84
2022/10/14 12:53:49;;;;;;;0.20;0.10;;;;;;;;;;5094589;28;20038;-83
2022/10/14 12:56:30;;;;;;;0.03;0.03;;;;;;;;;;5090482;28;20062;-89
2022/10/14 12:59:02;;;;;;;0.10;0.10;;;;;;;;;;5092453;28;20038;-83
2022/10/14 13:01:29;;;;;;;0.30;0.30;;;;;;;;;;5096826;28;20089;-86
2022/10/14 13:04:06;;;;;;;0.20;0.20;;;;;;;;;;5114532;28;20020;-87
2022/10/14 13:06:41;;;;;;;0.22;0.22;;;;;;;;;;5109665;28;20027;-87
2022/10/14 13:09:13;;;;;;;0.35;0.35;;;;;;;;;;5093595;28;20081;-86
2022/10/14 13:11:43;;;;;;;0.17;0.17;;;;;;;;;;5113165;28;20020;-88
2022/10/14 13:14:25;;;;;;;;;;;;;;;;;;5111698;28;20023;-85
2022/10/14 13:16:51;;;;;;;0.32;0.20;;;;;;;;;;5114547;28;20372;-84
2022/10/14 13:19:31;;;;;;;1.13;0.47;;;;;;;;;;5112594;28;20065;-85
2022/10/14 13:22:18;;;;;;;0.77;0.40;;;;;;;;;;5092642;28;20037;-85
2022/10/14 13:24:43;;;;;;;1.90;0.80;;;;;;;;;;5098678;28;20506;-85
2022/10/14 13:27:28;;;;;;;0.45;0.35;;;;;;;;;;5096282;28;20027;-85
2022/10/14 13:30:03;;;;;;;0.55;0.30;;;;;;;;;;5109608;28;20031;-88
2022/10/14 13:33:02;;;;;;;0.43;0.20;;;;;;;;;;5114814;28;20088;-89
2022/10/14 13:35:45;;;;;;;0.57;0.47;;;;;;;;;;5081314;28;20109;-84
2022/10/14 13:38:13;;;;;;;0.55;0.30;;;;;;;;;;5111112;28;20102;-88
2022/10/14 13:40:45;;;;;;;0.50;0.40;;;;;;;;;;5096069;28;20073;-86
2022/10/14 13:43:41;;;;;;;5.47;0.40;;;;;;;;;;5112936;28;20035;-88
2022/10/14 13:46:41;;;;;;;5.70;0.35;;;;;;;;;;5112826;28;20038;-86
2022/10/14 13:49:14;;;;;;;0.40;0.30;;;;;;;;;;5096641;28;20536;-86
2022/10/14 13:52:00;;;;;;;0.20;0.20;;;;;;;;;;5096480;28;20070;-86
2022/10/14 13:54:29;;;;;;;1.00;0.65;;;;;;;;;;5078078;28;20091;-84
2022/10/14 13:57:02;;;;;;;0.20;0.20;;;;;;;;;;5097500;28;20481;-88
2022/10/14 13:59:29;;;;;;;0.57;0.30;;;;;;;;;;5096117;28;20056;-85
2022/10/14 14:01:59;;;;;;;0.17;0.17;;;;;;;;;;5094679;28;20107;-85
2022/10/14 14:04:33;;;;;;;;;;;;;;;;;;5096572;28;20536;-86
2022/10/14 14:06:59;;;;;;;0.20;0.20;;;;;;;;;;5080958;28;19969;-85
2022/10/14 14:09:29;;;;;;;0.10;0.10;;;;;;;;;;5097082;28;20035;-88
2022/10/14 14:12:15;;;;;;;;;;;;;;;;;;5080855;28;20032;-85
2022/10/14 14:15:06;;;;;;;0.10;0.10;;;;;;;;;;5096309;28;19920;-86
2022/10/14 14:17:45;;;;;;;0.60;0.28;;;;;;;;;;5095100;28;20475;-86
2022/10/14 14:20:37;;;;;;;0.17;0.17;;;;;;;;;;5091844;28;20028;-86
2022/10/14 14:23:28;;;;;;;0.30;0.25;;;;;;;;;;5096442;28;20505;-87
2022/10/14 14:25:57;;;;;;;0.47;0.30;;;;;;;;;;5096624;28;20020;-88
2022/10/14 14:28:29;;;;;;;0.10;0.10;;;;;;;;;;5088365;28;20048;-86
2022/10/14 14:30:57;;;;;;;0.40;0.40;;;;;;;;;;5093099;28;20032;-88
2022/10/14 14:33:29;;;;;;;2.28;0.55;;;;;;;;;;5089321;28;20426;-85
2022/10/14 14:36:00;;;;;;;0.10;0.10;;;;;;;;;;5092282;28;20043;-86
2022/10/14 14:38:34;;;;;;;0.10;0.10;;;;;;;;;;5092464;28;20032;-87
2022/10/14 14:41:22;;;;;;;0.17;0.17;;;;;;;;;;5088470;28;20460;-88
2022/10/14 14:43:51;;;;;;;0.20;0.20;;;;;;;;;;5094739;28;20032;-85
2022/10/14 14:46:38;;;;;;;0.83;0.37;;;;;;;;;;5091689;28;20026;-84
2022/10/14 14:49:05;;;;;;;0.10;0.10;;;;;;;;;;5090285;28;20284;-82
2022/10/14 14:51:38;;;;;;;0.43;0.15;;;;;;;;;;5086556;28;20111;-84
2022/10/14 14:54:04;;;;;;;0.10;0.10;;;;;;;;;;5087453;28;20016;-83
2022/10/14 14:56:39;;;;;;;0.15;0.15;;;;;;;;;;5085735;28;20107;-85
2022/10/14 14:59:23;;;;;;;0.47;0.47;;;;;;;;;;5088547;28;20095;-85
2022/10/14 15:01:48;;;;;;;0.65;0.60;;;;;;;;;;5087420;28;20020;-81
2022/10/14 15:04:18;;;;;;;0.30;0.30;;;;;;;;;;5088911;28;20479;-86
2022/10/14 15:07:06;;;;;;;0.10;0.10;;;;;;;;;;5090660;28;20333;-82
2022/10/14 15:09:51;;;;;;;0.20;0.20;;;;;;;;;;5085092;28;20027;-83
2022/10/14 15:12:29;;;;;;;0.05;0.05;;;;;;;;;;5085539;28;20040;-83
2022/10/14 15:14:57;;;;;;;0.25;0.25;;;;;;;;;;5082098;28;20059;-85
2022/10/14 15:17:38;;;;;;;0.20;0.20;;;;;;;;;;5090529;28;20467;-86
2022/10/14 15:20:03;;;;;;;0.15;0.15;;;;;;;;;;5084112;28;20039;-83
2022/10/14 15:22:35;;;;;;;0.10;0.10;;;;;;;;;;5087790;28;20028;-86